Friday, January 18, 2019, 2:38 AM EST
Back to Local

KISP, Islip Long Island Mac Art

Location: Ronkonkoma, NY, United States Lat: 40.8
Local Time: 2:38 AM EST ( 7:38 GMT) Lon: -73.1
Time Zone: US/Eastern Elev: 98 ft

Show me the last for .
Show Coded

Time T Td Feel RH Dir Speed Gust Alt SLP Vis Weather Sky Remarks
2019-01-18 01:56 29 25 24 84 40° 5 - 30.19 30.19 3 -SN BR OVC031 1-hr Precip Total: Trace
2019-01-18 01:51 28 25 22 86 40° 6 - 30.19 - 3 -SN OVC029 1-hr Precip Total: Trace
2019-01-18 00:56 30 17 22 58 70° 8 - 30.20 30.20 10 FEW038 BKN049 OVC070 6-hr Min Temp (1am): 26.1°F
6-hr Max Temp (1am): 30.0°F
2019-01-17 23:56 29 15 - 55 - Calm - 30.24 30.24 10 OVC080 24-hr Min Temp (12am): 23.0°F
24-hr Max Temp (12am): 33.1°F
2019-01-17 22:56 28 12 - 50 - Calm - 30.25 30.26 10 OVC100 None
2019-01-17 21:56 27 9 19 45 30° 7 - 30.27 30.27 10 BKN130 OVC180 None
2019-01-17 20:56 26 11 19 52 20° 6 - 30.29 30.29 10 OVC140 None
2019-01-17 19:56 26 11 22 52 340° 3 - 30.31 30.31 10 FEW130 BKN170 OVC250 None
2019-01-17 18:56 29 9 - 42 - Calm - 30.32 30.32 10 OVC140 6-hr Min Temp (7pm): 28.0°F
6-hr Max Temp (7pm): 32.0°F
2019-01-17 17:56 29 10 23 44 120° 6 - 30.32 30.32 10 FEW120 OVC250 None
2019-01-17 16:56 29 5 21 35 140° 8 - 30.30 30.31 10 SCT120 OVC250 None
2019-01-17 15:56 30 2 26 29 60° 3 - 30.32 30.32 10 BKN120 OVC250 None
2019-01-17 14:56 30 2 25 29 20° 5 - 30.33 30.33 10 FEW150 OVC250 None
2019-01-17 13:56 30 3 - 30 - Calm - 30.34 30.34 10 OVC250 None
2019-01-17 12:56 30 2 23 29 350° 7 - 30.36 30.36 10 BKN250 6-hr Min Temp (1pm): 23.0°F
6-hr Max Temp (1pm): 30.9°F
2019-01-17 11:56 30 3 22 30 10° 8 - 30.39 30.39 10 FEW150 BKN250 None
2019-01-17 10:56 28 5 19 36 350° 9 - 30.41 30.41 10 BKN250 None
2019-01-17 09:56 27 8 16 44 350° 14 - 30.41 30.41 10 FEW150 BKN250 None
2019-01-17 08:56 26 12 16 54 350° 10 - 30.39 30.40 10 BKN150 BKN250 None
2019-01-17 07:56 25 13 19 59 20° 5 - 30.38 30.38 10 BKN250 None
2019-01-17 06:56 24 12 17 59 360° 6 - 30.36 30.36 10 BKN250 6-hr Min Temp (7am): 23.0°F
6-hr Max Temp (7am): 32.0°F
2019-01-17 05:56 24 11 16 56 330° 7 - 30.33 30.33 10 BKN250 None

Support USWX by starting your Amazon purchase here.